createdAt,value
2023-04-28T00:00:52.121Z,196.97
2023-04-28T00:01:52.163Z,196.38
2023-04-28T00:02:52.282Z,195.89
2023-04-28T00:03:52.497Z,195.52
2023-04-28T00:04:52.580Z,195.46
2023-04-28T00:05:52.453Z,194.52
2023-04-28T00:06:52.442Z,193.96
2023-04-28T00:07:52.508Z,193.79
2023-04-28T00:08:52.592Z,192.09
2023-04-28T00:09:52.627Z,193.10
2023-04-28T00:10:52.673Z,191.71
2023-04-28T00:11:52.729Z,190.50
2023-04-28T00:12:52.793Z,190.51
2023-04-28T00:13:52.876Z,188.58
2023-04-28T00:14:52.915Z,188.12
2023-04-28T00:15:53.140Z,188.12
2023-04-28T00:16:53.123Z,187.58
2023-04-28T00:17:53.184Z,187.32
2023-04-28T00:18:53.144Z,187.19
2023-04-28T00:19:53.205Z,188.34
2023-04-28T00:20:53.209Z,188.64
2023-04-28T00:21:53.267Z,188.43
2023-04-28T00:22:53.358Z,187.43
2023-04-28T00:23:53.420Z,188.52
2023-04-28T00:24:53.442Z,188.35
2023-04-28T00:25:53.506Z,189.31
2023-04-28T00:26:53.532Z,189.50
2023-04-28T00:27:53.611Z,188.95
2023-04-28T00:28:53.649Z,188.09
2023-04-28T00:29:53.719Z,188.05
2023-04-28T00:30:53.783Z,188.67
2023-04-28T00:31:53.939Z,186.89
2023-04-28T00:32:53.930Z,187.62
2023-04-28T00:33:53.964Z,187.29
2023-04-28T00:34:54.015Z,188.34
2023-04-28T00:35:54.093Z,189.03
2023-04-28T00:36:54.105Z,188.92
2023-04-28T00:37:54.215Z,188.73
2023-04-28T00:38:54.261Z,187.61
2023-04-28T00:39:54.298Z,188.66
2023-04-28T00:40:54.386Z,188.26
2023-04-28T00:41:54.421Z,188.61
2023-04-28T00:42:54.515Z,188.94
2023-04-28T00:43:54.559Z,189.89
2023-04-28T00:44:54.621Z,190.02
2023-04-28T00:45:54.745Z,189.62
2023-04-28T00:46:54.746Z,189.15
2023-04-28T00:47:54.841Z,189.30
2023-04-28T00:48:54.884Z,190.77
2023-04-28T00:49:54.942Z,190.28
2023-04-28T00:50:55.008Z,190.59
2023-04-28T00:51:55.039Z,188.98
2023-04-28T00:52:55.086Z,188.73
2023-04-28T00:53:55.197Z,189.10
2023-04-28T00:54:55.421Z,189.09
2023-04-28T00:55:55.622Z,190.23
2023-04-28T00:56:55.502Z,191.16
2023-04-28T00:57:55.372Z,189.60
2023-04-28T00:58:55.402Z,189.26
2023-04-28T00:59:55.460Z,189.89
2023-04-28T01:00:55.548Z,191.44
2023-04-28T01:01:55.594Z,189.73
2023-04-28T01:02:55.813Z,191.01
2023-04-28T01:03:55.897Z,190.82
2023-04-28T01:04:55.749Z,189.97
2023-04-28T01:05:55.805Z,191.81
2023-04-28T01:06:55.915Z,191.26
2023-04-28T01:07:55.930Z,190.46
2023-04-28T01:08:56.005Z,192.17
2023-04-28T01:09:56.047Z,192.76
2023-04-28T01:10:56.123Z,192.59
2023-04-28T01:11:56.163Z,192.27
2023-04-28T01:12:56.246Z,191.24
2023-04-28T01:13:56.290Z,191.75
2023-04-28T01:14:56.366Z,192.81
2023-04-28T01:15:56.425Z,192.74
2023-04-28T01:16:56.514Z,191.49
2023-04-28T01:17:56.558Z,193.79
2023-04-28T01:18:56.631Z,193.26
2023-04-28T01:19:56.652Z,193.21
2023-04-28T01:20:56.737Z,193.14
2023-04-28T01:21:56.769Z,194.11
2023-04-28T01:22:56.832Z,193.96
2023-04-28T01:23:56.924Z,192.69
2023-04-28T01:24:56.964Z,193.46
2023-04-28T01:25:57.033Z,192.43
2023-04-28T01:26:57.114Z,192.99
2023-04-28T01:27:57.181Z,192.59
2023-04-28T01:28:57.210Z,193.34
2023-04-28T01:29:57.272Z,193.17
2023-04-28T01:30:57.356Z,192.22
2023-04-28T01:31:57.435Z,193.11
2023-04-28T01:32:57.535Z,192.36
2023-04-28T01:33:57.542Z,193.33
2023-04-28T01:34:57.630Z,193.65
2023-04-28T01:35:57.673Z,192.76
2023-04-28T01:36:57.726Z,193.54
2023-04-28T01:37:57.798Z,193.02
2023-04-28T01:38:57.852Z,192.67
2023-04-28T01:39:57.890Z,194.12
2023-04-28T01:40:57.976Z,193.29
2023-04-28T01:41:58.050Z,193.30
2023-04-28T01:42:58.145Z,193.38
2023-04-28T01:43:58.185Z,192.83
2023-04-28T01:44:58.258Z,193.34
2023-04-28T01:45:58.354Z,192.55
2023-04-28T01:46:58.380Z,193.13
2023-04-28T01:47:58.428Z,192.40
2023-04-28T01:48:58.479Z,193.92
2023-04-28T01:49:58.530Z,193.95
2023-04-28T01:50:58.603Z,192.60
2023-04-28T01:51:58.669Z,192.59
2023-04-28T01:52:58.698Z,194.12
2023-04-28T01:53:58.768Z,193.01
2023-04-28T01:54:58.843Z,193.04
2023-04-28T01:55:58.874Z,192.38
2023-04-28T01:56:58.958Z,194.16
2023-04-28T01:57:59.005Z,193.59
2023-04-28T01:58:59.065Z,193.58
2023-04-28T01:59:59.133Z,193.74
2023-04-28T02:00:59.203Z,194.71
2023-04-28T02:01:59.289Z,194.27
2023-04-28T02:02:59.408Z,193.46
2023-04-28T02:03:59.539Z,193.96
2023-04-28T02:04:59.471Z,193.40
2023-04-28T02:05:59.466Z,194.47
2023-04-28T02:06:59.558Z,194.38
2023-04-28T02:07:59.635Z,193.62
2023-04-28T02:08:59.682Z,193.65
2023-04-28T02:09:59.762Z,193.00
2023-04-28T02:10:59.793Z,195.42
2023-04-28T02:11:59.873Z,194.44
2023-04-28T02:12:59.956Z,195.03
2023-04-28T02:14:00.035Z,195.26
2023-04-28T02:15:00.107Z,195.40
2023-04-28T02:16:00.208Z,196.35
2023-04-28T02:17:00.196Z,195.80
2023-04-28T02:18:00.334Z,195.40
2023-04-28T02:19:00.317Z,196.03
2023-04-28T02:20:00.377Z,195.04
2023-04-28T02:21:00.435Z,195.85
2023-04-28T02:22:00.474Z,196.77
2023-04-28T02:23:00.547Z,197.22
2023-04-28T02:24:00.627Z,196.28
2023-04-28T02:25:00.682Z,195.52
2023-04-28T02:26:00.738Z,195.69
2023-04-28T02:27:00.821Z,195.74
2023-04-28T02:28:00.884Z,195.45
2023-04-28T02:29:00.928Z,195.55
2023-04-28T02:30:01.019Z,194.89
2023-04-28T02:31:01.076Z,195.57
2023-04-28T02:32:01.219Z,195.49
2023-04-28T02:33:01.252Z,196.17
2023-04-28T02:34:01.272Z,196.71
2023-04-28T02:35:01.334Z,196.12
2023-04-28T02:36:01.415Z,196.78
2023-04-28T02:37:01.449Z,196.04
2023-04-28T02:38:01.535Z,195.92
2023-04-28T02:39:01.549Z,196.82
2023-04-28T02:40:01.630Z,196.40
2023-04-28T02:41:01.649Z,198.25
2023-04-28T02:42:01.726Z,196.74
2023-04-28T02:43:01.795Z,197.82
2023-04-28T02:44:01.857Z,196.07
2023-04-28T02:45:01.957Z,196.15
2023-04-28T02:46:01.991Z,196.17
2023-04-28T02:47:02.226Z,196.66
2023-04-28T02:48:02.207Z,196.92
2023-04-28T02:49:02.187Z,196.37
2023-04-28T02:50:02.220Z,197.53
2023-04-28T02:51:02.321Z,197.49
2023-04-28T02:52:02.393Z,197.52
2023-04-28T02:53:02.449Z,197.33
2023-04-28T02:54:02.462Z,196.87
2023-04-28T02:55:02.602Z,195.09
2023-04-28T02:56:02.648Z,195.58
2023-04-28T02:57:02.679Z,196.54
2023-04-28T02:58:02.733Z,196.07
2023-04-28T02:59:02.807Z,194.99
2023-04-28T03:00:02.868Z,196.75
2023-04-28T03:01:02.961Z,195.57
2023-04-28T03:02:02.966Z,195.45
2023-04-28T03:03:03.113Z,195.15
2023-04-28T03:04:03.261Z,195.37
2023-04-28T03:05:03.291Z,195.32
2023-04-28T03:06:03.226Z,195.43
2023-04-28T03:07:03.287Z,195.69
2023-04-28T03:08:03.363Z,194.93
2023-04-28T03:09:03.446Z,193.66
2023-04-28T03:10:03.480Z,194.68
2023-04-28T03:11:03.547Z,195.60
2023-04-28T03:12:03.601Z,196.50
2023-04-28T03:13:03.662Z,194.15
2023-04-28T03:14:03.732Z,194.58
2023-04-28T03:15:03.808Z,195.45
2023-04-28T03:16:03.872Z,197.14
2023-04-28T03:17:03.931Z,195.49
2023-04-28T03:18:03.992Z,195.79
2023-04-28T03:19:04.034Z,196.41
2023-04-28T03:20:04.096Z,195.19
2023-04-28T03:21:04.151Z,195.41
2023-04-28T03:22:04.270Z,194.98
2023-04-28T03:23:04.284Z,196.05
2023-04-28T03:24:05.546Z,195.59
2023-04-28T03:25:04.374Z,194.79
2023-04-28T03:26:04.443Z,195.79
2023-04-28T03:27:04.517Z,194.50
2023-04-28T03:28:04.578Z,196.00
2023-04-28T03:29:04.642Z,195.37
2023-04-28T03:30:04.703Z,195.56
2023-04-28T03:31:04.756Z,195.56
2023-04-28T03:32:04.818Z,197.77
2023-04-28T03:33:04.929Z,198.27
2023-04-28T03:34:04.921Z,198.59
2023-04-28T03:35:04.970Z,197.67
2023-04-28T03:36:04.987Z,198.88
2023-04-28T03:37:05.053Z,201.12
2023-04-28T03:38:05.084Z,202.60
2023-04-28T03:39:05.141Z,203.29
2023-04-28T03:40:05.172Z,203.61
2023-04-28T03:41:05.229Z,203.63
2023-04-28T03:42:05.266Z,202.93
2023-04-28T03:43:05.302Z,202.34
2023-04-28T03:44:05.350Z,201.30
2023-04-28T03:45:05.382Z,201.76
2023-04-28T03:46:05.453Z,202.72
2023-04-28T03:47:05.467Z,203.44
2023-04-28T03:48:05.508Z,203.64
2023-04-28T03:49:05.474Z,203.67
2023-04-28T03:50:05.490Z,204.37
2023-04-28T03:51:05.526Z,204.51
2023-04-28T03:52:05.522Z,206.08
2023-04-28T03:53:05.547Z,205.49
2023-04-28T03:54:05.534Z,206.08
2023-04-28T03:55:05.562Z,207.03
2023-04-28T03:56:05.567Z,205.35
2023-04-28T03:57:05.552Z,206.98
2023-04-28T03:58:05.565Z,207.25
2023-04-28T03:59:05.594Z,207.38
2023-04-28T04:00:05.569Z,207.89
2023-04-28T04:01:05.593Z,207.35
2023-04-28T04:02:05.596Z,207.81
2023-04-28T04:03:05.677Z,209.00
2023-04-28T04:04:05.855Z,208.71
2023-04-28T04:05:05.780Z,209.51
2023-04-28T04:06:05.578Z,209.72
2023-04-28T04:07:05.580Z,209.17
2023-04-28T04:08:05.592Z,209.73
2023-04-28T04:09:05.603Z,209.19
2023-04-28T04:10:05.573Z,209.92
2023-04-28T04:11:05.608Z,207.86
2023-04-28T04:12:05.547Z,210.26
2023-04-28T04:13:05.569Z,208.27
2023-04-28T04:14:05.574Z,210.89
2023-04-28T04:15:05.556Z,209.09
2023-04-28T04:16:05.585Z,211.12
2023-04-28T04:17:05.559Z,209.61
2023-04-28T04:18:05.618Z,209.82
2023-04-28T04:19:05.614Z,209.54
2023-04-28T04:20:05.556Z,210.95
2023-04-28T04:21:05.554Z,211.12
2023-04-28T04:22:05.557Z,209.96
2023-04-28T04:23:05.568Z,209.93
2023-04-28T04:24:05.581Z,210.79
2023-04-28T04:25:05.636Z,210.90
2023-04-28T04:26:05.582Z,211.35
2023-04-28T04:27:05.623Z,211.53
2023-04-28T04:28:05.670Z,211.56
2023-04-28T04:29:05.728Z,211.37
2023-04-28T04:30:05.768Z,211.56
2023-04-28T04:31:05.824Z,212.00
2023-04-28T04:32:05.835Z,212.35
2023-04-28T04:33:05.891Z,213.12
2023-04-28T04:34:05.949Z,212.84
2023-04-28T04:35:05.941Z,211.98
2023-04-28T04:36:06.036Z,212.00
2023-04-28T04:37:06.071Z,213.02
2023-04-28T04:38:06.064Z,213.23
2023-04-28T04:39:06.149Z,212.81
2023-04-28T04:40:06.151Z,213.69
2023-04-28T04:41:06.200Z,212.59
2023-04-28T04:42:16.760Z,214.14
2023-04-28T04:43:07.252Z,214.21
2023-04-28T04:44:06.222Z,214.34
2023-04-28T04:45:06.237Z,214.23
2023-04-28T04:46:06.229Z,214.42
2023-04-28T04:47:06.206Z,213.98
2023-04-28T04:48:06.246Z,214.33
2023-04-28T04:49:06.193Z,215.13
2023-04-28T04:50:06.223Z,214.61
2023-04-28T04:51:06.186Z,214.42
2023-04-28T04:52:06.183Z,214.77
2023-04-28T04:53:06.769Z,214.42
2023-04-28T04:54:06.199Z,214.26
2023-04-28T04:55:06.164Z,214.92
2023-04-28T04:56:06.169Z,214.20
2023-04-28T04:57:06.217Z,214.15
2023-04-28T04:58:06.260Z,215.07
2023-04-28T04:59:06.312Z,215.53
2023-04-28T05:00:06.326Z,214.42
2023-04-28T05:01:13.355Z,214.67
2023-04-28T05:02:06.436Z,214.82
2023-04-28T05:04:06.470Z,215.02
2023-04-28T05:05:19.877Z,215.00
2023-04-28T05:06:07.344Z,214.83
2023-04-28T05:07:06.333Z,215.24
2023-04-28T05:08:06.307Z,215.69
2023-04-28T05:09:06.303Z,215.55
2023-04-28T05:10:06.291Z,214.85
2023-04-28T05:11:06.288Z,214.79
2023-04-28T05:12:06.291Z,214.51
2023-04-28T05:13:06.282Z,213.05
2023-04-28T05:14:06.297Z,214.93
2023-04-28T05:15:06.284Z,215.41
2023-04-28T05:16:06.391Z,214.51
2023-04-28T05:17:06.232Z,214.14
2023-04-28T05:18:06.255Z,213.70
2023-04-28T05:19:06.242Z,214.68
2023-04-28T05:20:06.243Z,215.68
2023-04-28T05:21:06.248Z,216.10
2023-04-28T05:22:06.227Z,215.94
2023-04-28T05:23:06.192Z,214.21
2023-04-28T05:24:06.205Z,213.69
2023-04-28T05:25:06.193Z,215.61
2023-04-28T05:26:06.221Z,214.79
2023-04-28T05:27:06.262Z,215.29
2023-04-28T05:28:06.290Z,214.54
2023-04-28T05:29:06.347Z,213.52
2023-04-28T05:30:06.558Z,214.62
2023-04-28T05:31:06.338Z,214.76
2023-04-28T05:32:06.424Z,215.23
2023-04-28T05:33:06.420Z,217.94
2023-04-28T05:34:06.461Z,220.53
2023-04-28T05:35:06.482Z,209.61
2023-04-28T05:36:06.719Z,212.17
2023-04-28T05:37:06.516Z,206.68
2023-04-28T05:38:06.586Z,205.41
2023-04-28T05:39:06.560Z,207.63
2023-04-28T05:40:07.028Z,214.61
2023-04-28T05:41:06.661Z,221.03
2023-04-28T05:42:06.716Z,223.06
2023-04-28T05:43:06.742Z,217.17
2023-04-28T05:44:06.777Z,220.78
2023-04-28T05:45:07.094Z,228.29
2023-04-28T05:46:28.334Z,227.31
2023-04-28T05:47:07.863Z,227.66
2023-04-28T05:48:06.875Z,229.31
2023-04-28T05:49:06.841Z,232.24
2023-04-28T05:50:07.046Z,236.67
2023-04-28T05:51:06.872Z,244.33
2023-04-28T05:52:06.878Z,249.34
2023-04-28T05:53:06.849Z,250.00
2023-04-28T05:54:06.855Z,249.64
2023-04-28T05:55:06.806Z,250.09
2023-04-28T05:56:06.792Z,248.79
2023-04-28T05:57:06.803Z,250.00
2023-04-28T05:58:06.787Z,250.00
2023-04-28T05:59:06.797Z,250.00
2023-04-28T06:00:06.778Z,250.00
2023-04-28T06:01:06.788Z,250.00
2023-04-28T06:02:06.784Z,249.75
2023-04-28T06:03:06.905Z,250.00
2023-04-28T06:04:07.088Z,249.75
2023-04-28T06:05:07.187Z,250.00
2023-04-28T06:06:09.759Z,250.38
2023-04-28T06:07:06.728Z,250.55
2023-04-28T06:08:06.729Z,251.46
2023-04-28T06:09:06.743Z,253.82
2023-04-28T06:10:07.181Z,259.05
2023-04-28T06:11:06.701Z,265.87
2023-04-28T06:12:06.664Z,259.50
2023-04-28T06:13:06.673Z,253.59
2023-04-28T06:14:06.663Z,249.29
2023-04-28T06:15:07.070Z,249.90
2023-04-28T06:16:06.723Z,249.76
2023-04-28T06:17:06.643Z,249.65
2023-04-28T06:18:06.702Z,249.88
2023-04-28T06:19:06.639Z,249.43
2023-04-28T06:20:06.619Z,249.61
2023-04-28T06:21:06.649Z,249.98
2023-04-28T06:22:06.598Z,250.00
2023-04-28T06:23:06.592Z,249.16
2023-04-28T06:24:06.602Z,249.90
2023-04-28T06:25:07.061Z,249.29
2023-04-28T06:26:06.591Z,250.00
2023-04-28T06:27:06.555Z,249.59
2023-04-28T06:28:06.556Z,249.88
2023-04-28T06:29:06.563Z,250.00
2023-04-28T06:30:06.565Z,249.63
2023-04-28T06:31:06.552Z,249.46
2023-04-28T06:32:06.557Z,249.53
2023-04-28T06:33:06.709Z,250.00
2023-04-28T06:34:06.505Z,249.64
2023-04-28T06:35:06.543Z,249.53
2023-04-28T06:36:06.501Z,250.00
2023-04-28T06:37:06.526Z,249.38
2023-04-28T06:38:06.484Z,247.90
2023-04-28T06:39:06.501Z,247.54
2023-04-28T06:40:06.595Z,247.86
2023-04-28T06:41:06.478Z,243.31
2023-04-28T06:42:06.494Z,241.78
2023-04-28T06:43:06.454Z,241.78
2023-04-28T06:44:06.490Z,242.37
2023-04-28T06:45:06.474Z,243.09
2023-04-28T06:46:06.430Z,244.19
2023-04-28T06:47:06.506Z,244.62
2023-04-28T06:48:06.498Z,245.79
2023-04-28T06:49:06.416Z,246.26
2023-04-28T06:50:06.637Z,246.54
2023-04-28T06:51:06.385Z,247.11
2023-04-28T06:52:06.384Z,247.18
2023-04-28T06:53:06.400Z,247.06
2023-04-28T06:54:06.351Z,246.83
2023-04-28T06:55:06.352Z,247.05
2023-04-28T06:56:07.080Z,247.18
2023-04-28T06:57:06.343Z,246.68
2023-04-28T06:58:06.369Z,247.82
2023-04-28T06:59:06.309Z,250.00
2023-04-28T07:00:06.361Z,249.45
2023-04-28T07:01:06.334Z,249.88
2023-04-28T07:02:06.329Z,249.20
2023-04-28T07:03:06.423Z,248.90
2023-04-28T07:04:06.512Z,249.64
2023-04-28T07:05:06.337Z,248.99
2023-04-28T07:06:07.098Z,249.20
2023-04-28T07:07:06.307Z,250.00
2023-04-28T07:08:06.356Z,249.65
2023-04-28T07:09:06.354Z,248.61
2023-04-28T07:10:06.375Z,248.68
2023-04-28T07:11:06.378Z,250.00
2023-04-28T07:12:06.379Z,249.47
2023-04-28T07:13:06.380Z,249.98
2023-04-28T07:14:06.393Z,249.45
2023-04-28T07:15:06.518Z,248.39
2023-04-28T07:16:06.463Z,248.53
2023-04-28T07:17:06.487Z,248.26
2023-04-28T07:18:06.472Z,250.00
2023-04-28T07:19:06.479Z,249.35
2023-04-28T07:20:06.473Z,249.40
2023-04-28T07:21:06.474Z,247.97
2023-04-28T07:22:06.482Z,247.52
2023-04-28T07:23:06.532Z,247.88
2023-04-28T07:24:06.503Z,248.13
2023-04-28T07:25:06.496Z,248.29
2023-04-28T07:26:06.501Z,248.68
2023-04-28T07:27:06.554Z,249.14
2023-04-28T07:28:06.766Z,249.32
2023-04-28T07:29:08.171Z,249.60
2023-04-28T07:30:19.084Z,246.38
2023-04-28T07:31:07.598Z,216.98
2023-04-28T07:32:07.702Z,197.99
2023-04-28T07:33:06.584Z,183.57
2023-04-28T07:34:06.596Z,179.47
2023-04-28T07:35:06.557Z,183.99
2023-04-28T07:36:06.581Z,189.46
2023-04-28T07:37:06.519Z,194.93
2023-04-28T07:38:06.560Z,197.82
2023-04-28T07:39:06.529Z,200.41
2023-04-28T07:40:06.535Z,201.63
2023-04-28T07:41:07.722Z,203.51
2023-04-28T07:42:06.500Z,203.61
2023-04-28T07:43:06.523Z,204.25
2023-04-28T07:44:08.076Z,205.96
2023-04-28T07:45:06.533Z,209.55
2023-04-28T07:46:06.779Z,215.66
2023-04-28T07:47:06.483Z,218.58
2023-04-28T07:48:06.482Z,221.42
2023-04-28T07:49:06.523Z,222.98
2023-04-28T07:50:06.517Z,224.91
2023-04-28T07:51:06.631Z,227.22
2023-04-28T07:52:06.589Z,228.86
2023-04-28T07:53:06.433Z,231.52
2023-04-28T07:54:06.430Z,232.32
2023-04-28T07:55:06.410Z,233.09
2023-04-28T07:56:06.599Z,235.29
2023-04-28T07:57:06.393Z,236.51
2023-04-28T07:58:06.392Z,236.68
2023-04-28T07:59:06.403Z,236.55
2023-04-28T08:00:07.008Z,237.20
2023-04-28T08:01:06.604Z,236.34
2023-04-28T08:02:06.415Z,235.54
2023-04-28T08:03:06.478Z,233.59
2023-04-28T08:04:06.623Z,233.09
2023-04-28T08:05:06.634Z,231.45
2023-04-28T08:06:06.559Z,229.90
2023-04-28T08:07:06.574Z,221.09
2023-04-28T08:08:06.620Z,219.40
2023-04-28T08:09:06.681Z,219.76
2023-04-28T08:10:06.733Z,221.78
2023-04-28T08:11:07.153Z,219.36
2023-04-28T08:12:06.933Z,219.43
2023-04-28T08:13:07.115Z,219.64
2023-04-28T08:14:06.994Z,218.28
2023-04-28T08:15:07.045Z,217.18
2023-04-28T08:16:07.157Z,217.06
2023-04-28T08:17:07.597Z,215.30
2023-04-28T08:18:07.275Z,216.04
2023-04-28T08:19:07.349Z,216.53
2023-04-28T08:20:07.349Z,216.75
2023-04-28T08:21:07.432Z,213.19
2023-04-28T08:22:07.499Z,209.21
2023-04-28T08:23:07.568Z,211.97
2023-04-28T08:24:07.632Z,212.56
2023-04-28T08:25:07.663Z,212.37
2023-04-28T08:26:07.745Z,208.97
2023-04-28T08:27:07.775Z,209.66
2023-04-28T08:28:07.841Z,211.39
2023-04-28T08:29:07.926Z,210.13
2023-04-28T08:30:08.004Z,176.56
2023-04-28T08:31:08.013Z,174.25
2023-04-28T08:32:08.119Z,187.12
2023-04-28T08:33:07.975Z,183.75
2023-04-28T08:34:07.960Z,178.12
2023-04-28T08:35:07.960Z,176.11
2023-04-28T08:36:07.954Z,176.62
2023-04-28T08:37:08.155Z,179.14
2023-04-28T08:38:07.962Z,182.45
2023-04-28T08:39:07.952Z,187.08
2023-04-28T08:40:07.986Z,190.93
2023-04-28T08:41:07.939Z,188.59
2023-04-28T08:42:07.954Z,193.75
2023-04-28T08:43:07.973Z,193.95
2023-04-28T08:44:08.007Z,197.72
2023-04-28T08:45:08.072Z,198.54
2023-04-28T08:46:08.646Z,198.26
2023-04-28T08:47:08.137Z,198.96
2023-04-28T08:48:08.329Z,200.09
2023-04-28T08:49:08.278Z,212.84
2023-04-28T08:50:08.330Z,239.94
2023-04-28T08:51:08.284Z,240.23
2023-04-28T08:52:08.635Z,241.11
2023-04-28T08:53:08.332Z,239.62
2023-04-28T08:55:08.289Z,247.30
2023-04-28T08:56:08.349Z,250.13
2023-04-28T08:57:08.277Z,244.46
2023-04-28T08:58:08.306Z,240.02
2023-04-28T08:59:08.290Z,237.69
2023-04-28T09:00:08.237Z,237.76
2023-04-28T09:01:08.291Z,237.49
2023-04-28T09:02:08.498Z,239.09
2023-04-28T09:03:08.385Z,240.84
2023-04-28T09:04:08.333Z,243.16
2023-04-28T09:05:09.375Z,243.63
2023-04-28T09:06:08.233Z,245.38
2023-04-28T09:07:08.227Z,247.80
2023-04-28T09:08:08.209Z,250.00
2023-04-28T09:09:08.180Z,250.00
2023-04-28T09:10:08.183Z,249.74
2023-04-28T09:11:08.180Z,249.98
2023-04-28T09:12:08.268Z,249.71
2023-04-28T09:13:08.191Z,250.00
2023-04-28T09:14:08.195Z,250.00
2023-04-28T09:15:08.151Z,249.82
2023-04-28T09:16:08.173Z,249.89
2023-04-28T09:17:08.115Z,250.00
2023-04-28T09:18:08.244Z,249.96
2023-04-28T09:19:09.124Z,249.28
2023-04-28T09:20:08.145Z,250.00
2023-04-28T09:21:08.127Z,249.71
2023-04-28T09:22:24.711Z,249.62
2023-04-28T09:23:09.103Z,249.74
2023-04-28T09:24:08.151Z,250.15
2023-04-28T09:25:08.116Z,251.21
2023-04-28T09:26:08.080Z,252.72
2023-04-28T09:27:09.094Z,249.86
2023-04-28T09:28:08.054Z,250.48
2023-04-28T09:29:08.072Z,251.90
2023-04-28T09:30:08.051Z,254.23
2023-04-28T09:31:08.053Z,258.96
2023-04-28T09:32:08.219Z,252.40
2023-04-28T09:33:10.060Z,249.34
2023-04-28T09:34:08.058Z,249.11
2023-04-28T09:35:08.035Z,248.76
2023-04-28T09:36:08.034Z,249.08
2023-04-28T09:37:08.006Z,249.40
2023-04-28T09:38:07.997Z,249.11
2023-04-28T09:39:07.993Z,249.14
2023-04-28T09:40:07.972Z,249.75
2023-04-28T09:41:07.999Z,249.93
2023-04-28T09:42:08.021Z,249.14
2023-04-28T09:43:21.008Z,250.00
2023-04-28T09:44:08.956Z,226.49
2023-04-28T09:45:07.958Z,224.30
2023-04-28T09:46:08.043Z,233.74
2023-04-28T09:47:07.911Z,235.13
2023-04-28T09:48:08.198Z,238.76
2023-04-28T09:49:07.929Z,239.52
2023-04-28T09:50:07.955Z,239.73
2023-04-28T09:51:07.978Z,240.14
2023-04-28T09:52:08.025Z,240.43
2023-04-28T09:53:08.083Z,242.34
2023-04-28T09:54:08.092Z,243.06
2023-04-28T09:55:08.128Z,244.67
2023-04-28T09:56:08.157Z,245.41
2023-04-28T09:57:08.443Z,245.21
2023-04-28T09:58:08.718Z,245.93
2023-04-28T09:59:08.306Z,247.12
2023-04-28T10:00:08.227Z,248.11
2023-04-28T10:01:08.248Z,248.28
2023-04-28T10:02:25.924Z,249.12
2023-04-28T10:03:09.418Z,249.19
2023-04-28T10:04:08.313Z,249.30
2023-04-28T10:05:08.487Z,249.48
2023-04-28T10:06:08.262Z,249.81
2023-04-28T10:07:08.229Z,250.30
2023-04-28T10:08:08.243Z,249.97
2023-04-28T10:09:08.219Z,249.17
2023-04-28T10:10:08.216Z,249.48
2023-04-28T10:11:08.229Z,249.91
2023-04-28T10:12:08.204Z,249.66
2023-04-28T10:13:08.209Z,249.08
2023-04-28T10:14:08.173Z,249.79
2023-04-28T10:15:08.200Z,249.68
2023-04-28T10:16:08.224Z,249.98
2023-04-28T10:17:08.172Z,249.82
2023-04-28T10:18:08.191Z,249.88
2023-04-28T10:19:08.137Z,248.87
2023-04-28T10:20:08.131Z,249.72
2023-04-28T10:21:08.213Z,248.97
2023-04-28T10:22:08.126Z,248.98
2023-04-28T10:23:08.210Z,248.55
2023-04-28T10:24:08.158Z,247.87
2023-04-28T10:25:08.129Z,247.52
2023-04-28T10:26:08.119Z,248.60
2023-04-28T10:27:08.081Z,247.66
2023-04-28T10:28:08.170Z,247.30
2023-04-28T10:29:08.122Z,247.13
2023-04-28T10:30:15.860Z,245.99
2023-04-28T10:31:09.196Z,246.03
2023-04-28T10:32:08.154Z,246.05
2023-04-28T10:33:08.204Z,245.36
2023-04-28T10:34:08.086Z,246.48
2023-04-28T10:35:08.040Z,245.44
2023-04-28T10:36:08.073Z,245.97
2023-04-28T10:37:08.033Z,246.31
2023-04-28T10:38:08.183Z,246.30
2023-04-28T10:39:08.033Z,238.82
2023-04-28T10:40:08.367Z,231.42
2023-04-28T10:41:08.008Z,223.49
2023-04-28T10:42:08.013Z,221.72
2023-04-28T10:43:07.999Z,211.77
2023-04-28T10:44:08.016Z,204.02
2023-04-28T10:45:08.339Z,198.51
2023-04-28T10:46:08.388Z,200.13
2023-04-28T10:47:07.985Z,206.06
2023-04-28T10:48:07.996Z,208.36
2023-04-28T10:49:07.935Z,210.26
2023-04-28T10:50:07.971Z,213.38
2023-04-28T10:51:08.019Z,214.06
2023-04-28T10:52:08.029Z,214.88
2023-04-28T10:53:08.074Z,215.91
2023-04-28T10:54:08.098Z,214.23
2023-04-28T10:55:19.426Z,210.91
2023-04-28T10:56:09.143Z,210.97
2023-04-28T10:57:08.114Z,210.93
2023-04-28T10:58:08.192Z,210.09
2023-04-28T10:59:08.147Z,206.79
2023-04-28T11:00:08.115Z,206.58
2023-04-28T11:01:08.152Z,206.00
2023-04-28T11:02:08.190Z,205.10
2023-04-28T11:03:08.341Z,205.53
2023-04-28T11:04:08.382Z,205.22
2023-04-28T11:05:08.274Z,204.22
2023-04-28T11:06:08.073Z,203.70
2023-04-28T11:07:08.084Z,202.34
2023-04-28T11:08:08.170Z,203.65
2023-04-28T11:09:08.168Z,202.31
2023-04-28T11:10:08.204Z,201.86
2023-04-28T11:11:08.293Z,201.25
2023-04-28T11:12:08.333Z,201.62
2023-04-28T11:13:08.332Z,201.02
2023-04-28T11:14:08.718Z,199.35
2023-04-28T11:15:08.428Z,198.67
2023-04-28T11:16:08.457Z,198.61
2023-04-28T11:17:08.532Z,195.56
2023-04-28T11:18:08.640Z,197.00
2023-04-28T11:19:08.583Z,196.39
2023-04-28T11:20:08.657Z,195.16
2023-04-28T11:21:08.687Z,193.18
2023-04-28T11:22:08.712Z,193.83
2023-04-28T11:23:08.750Z,192.15
2023-04-28T11:24:09.212Z,192.08
2023-04-28T11:25:08.807Z,190.79
2023-04-28T11:26:08.870Z,189.86
2023-04-28T11:27:08.902Z,190.85
2023-04-28T11:28:08.934Z,189.12
2023-04-28T11:29:08.981Z,187.23
2023-04-28T11:30:09.062Z,186.47
2023-04-28T11:31:09.112Z,183.58
2023-04-28T11:32:09.371Z,183.56
2023-04-28T11:33:09.213Z,183.77
2023-04-28T11:34:09.704Z,183.63
2023-04-28T11:35:09.280Z,183.30
2023-04-28T11:36:09.666Z,183.92
2023-04-28T11:37:09.361Z,183.84
2023-04-28T11:38:09.386Z,183.10
2023-04-28T11:39:09.450Z,182.62
2023-04-28T11:40:09.499Z,181.97
2023-04-28T11:41:09.500Z,182.67
2023-04-28T11:42:09.562Z,175.59
2023-04-28T11:43:09.583Z,163.92
2023-04-28T11:44:09.687Z,163.62
2023-04-28T11:45:09.676Z,166.93
2023-04-28T11:46:09.859Z,171.35
2023-04-28T11:47:09.796Z,175.55
2023-04-28T11:48:09.921Z,177.49
2023-04-28T11:49:10.094Z,176.41
2023-04-28T11:50:10.054Z,169.62
2023-04-28T11:51:10.042Z,170.73
2023-04-28T11:52:10.118Z,173.56
2023-04-28T11:53:10.146Z,175.11
2023-04-28T11:54:10.218Z,173.20
2023-04-28T11:55:10.267Z,172.86
2023-04-28T11:56:10.301Z,173.62
2023-04-28T11:57:10.365Z,174.10
2023-04-28T11:58:10.403Z,174.72
2023-04-28T11:59:10.497Z,175.07
2023-04-28T12:00:10.498Z,174.28
2023-04-28T12:01:10.613Z,172.70
2023-04-28T12:02:10.617Z,168.85
2023-04-28T12:03:10.888Z,157.30
2023-04-28T12:04:10.880Z,145.05
2023-04-28T12:05:10.814Z,141.56
2023-04-28T12:06:10.811Z,133.90
2023-04-28T12:07:10.874Z,132.57
2023-04-28T12:08:10.831Z,138.40
2023-04-28T12:09:10.831Z,148.66
2023-04-28T12:10:10.832Z,153.90
2023-04-28T12:11:10.861Z,155.97
2023-04-28T12:12:10.847Z,155.39
2023-04-28T12:13:10.851Z,163.94
2023-04-28T12:14:10.902Z,175.62
2023-04-28T12:15:10.903Z,186.21
2023-04-28T12:16:11.020Z,187.25
2023-04-28T12:17:10.982Z,192.84
2023-04-28T12:18:11.045Z,196.24
2023-04-28T12:19:11.081Z,205.02
2023-04-28T12:20:11.093Z,202.64
2023-04-28T12:21:11.103Z,206.91
2023-04-28T12:22:11.126Z,210.84
2023-04-28T12:23:11.090Z,203.07
2023-04-28T12:24:11.192Z,204.13
2023-04-28T12:25:11.118Z,207.74
2023-04-28T12:26:11.082Z,212.91
2023-04-28T12:27:11.106Z,211.62
2023-04-28T12:28:11.135Z,211.03
2023-04-28T12:29:11.142Z,205.42
2023-04-28T12:30:11.135Z,204.19
2023-04-28T12:31:11.223Z,207.08